Etusivu
METAR-TAF:

METAR-TAF

Lentoasemat :

Gillespie County Airport

Fredericksburg, Texas, Yhdysvallat

Leveyspiiri: 30-14-37N, Pituuspiiri: 098-54-34W, korkeus merenpinnasta: 517 m

Tämänhetkinen sää

Tämä raportti tehtiin 23 minuuttia sitten, kello 04.35 UTC
Tuuli 3 kn lounaasta
Lämpötila 14°C
Kosteus 94%
Ilmanpaine 1017 hPa
Näkyvyys: 11.3 km
Pilvistä 400 ft:n korkeudessa

METAR: KT82 260435Z AUTO 22003KT 7SM OVC004 14/13 A3004 RMK AO2 T01380132

Aika: 22:58 (04:58 UTC)


TAF: puuttuu

Säähavainnot ja -ennusteet yli 4000 lentoasemalta (METAR- ja TAF-raportit).

Käytössä olevat sääasemat on merkitty karttaan keltaisilla ja punaisilla pisteillä.

Aseta hiiri pisteen päälle nähdäksesi sääaseman nimen.

Klikkaa sitten nähdäksesi säähavainnot ja -ennusteet.

Kartan vaihtaminen: klikkaa mustalla rastilla varustettuja vihreitä pisteitä, niin voit zoomata sisään; viivalla varustettua vihreää pistettä, niin voit zoomata ulos tai vihreitä nuolia, niin pääset viereisille kartoille.


METAR-TAF: